Time;durP1;ratioP1;P1;durP2;ratioP2;P2;SDS_P1;SDS_P2;PMS_P1;PMS_P2;Temp;Humidity;BMP_temperature;BMP_pressure;BME280_temperature;BME280_humidity;BME280_pressure;Samples;Min_cycle;Max_cycle;Signal;HPM_P1;HPM_P2
2022/11/12 00:02:19;;;;;;;7.70;6.00;;;;;;;10.72;58.57;102118.82;106089;1304;21958;-68
2022/11/12 00:04:45;;;;;;;9.50;6.30;;;;;;;10.67;58.59;102119.44;106042;1304;22049;-68
2022/11/12 00:07:11;;;;;;;8.40;6.20;;;;;;;10.55;58.60;102125.05;106043;1299;21962;-68
2022/11/12 00:09:37;;;;;;;8.50;6.00;;;;;;;10.43;58.56;102131.17;106027;1304;21947;-63
2022/11/12 00:12:03;;;;;;;7.00;5.30;;;;;;;10.34;58.78;102135.41;106142;1304;21974;-67
2022/11/12 00:14:29;;;;;;;5.40;4.00;;;;;;;10.27;58.94;102131.42;106119;1299;21994;-63
2022/11/12 00:16:55;;;;;;;6.20;4.60;;;;;;;10.23;58.85;102131.35;106066;1304;21969;-63
2022/11/12 00:19:21;;;;;;;6.10;4.30;;;;;;;10.19;58.90;102133.02;106009;1304;21967;-63
2022/11/12 00:21:47;;;;;;;3.90;3.00;;;;;;;10.16;58.90;102131.58;106174;1301;21968;-63
2022/11/12 00:24:13;;;;;;;3.50;2.50;;;;;;;10.11;58.95;102127.65;106099;1304;21956;-67
2022/11/12 00:26:39;;;;;;;3.50;2.30;;;;;;;10.06;58.95;102131.23;106101;1304;21957;-62
2022/11/12 00:29:05;;;;;;;3.60;2.70;;;;;;;10.01;59.03;102129.37;106082;1304;21984;-62
2022/11/12 00:31:31;;;;;;;4.10;3.00;;;;;;;9.96;59.12;102128.42;106149;1304;21970;-67
2022/11/12 00:33:56;;;;;;;5.30;3.60;;;;;;;9.93;59.15;102128.55;106137;1299;21959;-62
2022/11/12 00:36:22;;;;;;;4.80;3.50;;;;;;;9.91;59.20;102133.08;106001;1304;21967;-62
2022/11/12 00:38:48;;;;;;;4.90;3.40;;;;;;;9.87;59.12;102137.55;106026;1304;21972;-62
2022/11/12 00:41:13;;;;;;;5.70;4.10;;;;;;;9.84;59.23;102136.27;106083;1304;21967;-68
2022/11/12 00:43:39;;;;;;;6.30;4.20;;;;;;;9.80;59.19;102133.91;106078;1304;22085;-67
2022/11/12 00:46:05;;;;;;;5.30;4.10;;;;;;;9.77;59.17;102142.10;106044;1304;21976;-62
2022/11/12 00:48:31;;;;;;;6.40;4.70;;;;;;;9.73;59.17;102140.97;106129;1299;21935;-62
2022/11/12 00:51:03;;;;;;;9.40;6.90;;;;;;;9.69;59.19;102143.00;106102;1299;21941;-67
2022/11/12 00:53:29;;;;;;;8.80;6.80;;;;;;;9.66;59.24;102142.40;106105;1299;21974;-62
2022/11/12 00:56:02;;;;;;;11.50;8.00;;;;;;;9.62;59.31;102143.20;105993;1304;22082;-62
2022/11/12 00:58:29;;;;;;;15.30;9.40;;;;;;;9.60;59.50;102141.06;106100;1299;21974;-62
2022/11/12 01:00:55;;;;;;;10.90;8.10;;;;;;;9.59;59.48;102137.36;106093;1299;23094;-61
2022/11/12 01:03:21;;;;;;;12.60;9.00;;;;;;;9.61;59.76;102137.94;106103;1304;21969;-61
2022/11/12 01:05:47;;;;;;;13.20;9.00;;;;;;;9.64;59.73;102140.79;106030;1304;22004;-62
2022/11/12 01:08:13;;;;;;;12.90;8.30;;;;;;;9.66;59.68;102145.05;106177;1304;21942;-62
2022/11/12 01:10:38;;;;;;;11.50;8.20;;;;;;;9.67;59.62;102146.65;106144;1304;21953;-61
2022/11/12 01:13:04;;;;;;;11.00;7.30;;;;;;;9.65;59.42;102147.48;106101;1304;21970;-68
2022/11/12 01:15:30;;;;;;;8.90;7.10;;;;;;;9.60;59.41;102147.73;105984;1304;22040;-62
2022/11/12 01:17:58;;;;;;;11.10;7.60;;;;;;;9.55;59.23;102144.99;106119;1304;22036;-62
2022/11/12 01:20:25;;;;;;;11.10;8.10;;;;;;;9.53;59.44;102146.70;106129;1299;23161;-62
2022/11/12 01:22:52;;;;;;;11.60;8.20;;;;;;;9.53;59.65;102150.38;106097;1304;21971;-62
2022/11/12 01:25:18;;;;;;;8.90;6.50;;;;;;;9.53;59.72;102149.84;106098;1299;21928;-68
2022/11/12 01:27:44;;;;;;;9.50;7.10;;;;;;;9.53;59.71;102151.95;106154;1304;21961;-68
2022/11/12 01:30:10;;;;;;;8.60;6.50;;;;;;;9.54;59.57;102156.55;106108;1301;21948;-68
2022/11/12 01:32:36;;;;;;;9.60;6.90;;;;;;;9.55;59.61;102157.95;106068;1304;21961;-68
2022/11/12 01:35:03;;;;;;;10.30;7.60;;;;;;;9.55;59.63;102156.02;106108;1299;21961;-62
2022/11/12 01:37:29;;;;;;;10.10;7.70;;;;;;;9.55;59.70;102153.58;106125;1304;24102;-62
2022/11/12 01:39:55;;;;;;;11.80;7.50;;;;;;;9.54;59.43;102152.85;106160;1301;21963;-62
2022/11/12 01:42:23;;;;;;;9.90;7.50;;;;;;;9.53;59.46;102156.00;106003;1302;21961;-62
2022/11/12 01:44:50;;;;;;;9.70;7.40;;;;;;;9.49;59.60;102160.30;106120;1300;21978;-62
2022/11/12 01:47:36;;;;;;;11.10;7.40;;;;;;;9.52;59.50;102157.55;106107;1289;22018;-68
2022/11/12 01:50:11;;;;;;;12.50;8.50;;;;;;;9.52;59.53;102159.30;105889;1296;21971;-62
2022/11/12 01:52:40;;;;;;;10.20;7.70;;;;;;;9.50;59.38;102158.20;106123;1304;21975;-68
2022/11/12 01:55:11;;;;;;;9.90;7.00;;;;;;;9.49;59.25;102153.45;106116;1301;21960;-68
2022/11/12 01:57:39;;;;;;;11.60;7.70;;;;;;;9.47;59.22;102153.59;106180;1299;21919;-67
2022/11/12 02:00:08;;;;;;;9.80;7.50;;;;;;;9.44;59.26;102158.27;106026;1299;21968;-67
2022/11/12 02:02:36;;;;;;;9.90;7.10;;;;;;;9.42;59.27;102163.80;106096;1299;23073;-68
2022/11/12 02:05:03;;;;;;;9.80;7.60;;;;;;;9.37;59.27;102161.45;106115;1300;21972;-62
2022/11/12 02:07:30;;;;;;;11.10;7.60;;;;;;;9.34;59.18;102159.80;105973;1304;21966;-68
2022/11/12 02:09:55;;;;;;;8.70;6.40;;;;;;;9.29;59.11;102161.63;105829;1306;21960;-67
2022/11/12 02:15:07;;;;;;;8.60;5.90;;;;;;;9.22;59.08;102159.20;106040;1304;21955;-68
2022/11/12 02:17:33;;;;;;;8.60;5.70;;;;;;;9.18;59.02;102158.24;106126;1304;22028;-68
2022/11/12 02:20:07;;;;;;;8.60;6.30;;;;;;;9.14;59.07;102160.08;106031;1304;22068;-62
2022/11/12 02:22:34;;;;;;;10.00;7.50;;;;;;;9.07;58.99;102161.50;106164;1301;21953;-68
2022/11/12 02:25:00;;;;;;;9.60;6.90;;;;;;;9.02;59.17;102158.77;106038;1299;23097;-68
2022/11/12 02:27:26;;;;;;;10.60;7.60;;;;;;;8.99;59.17;102157.12;106045;1304;21971;-61
2022/11/12 02:29:51;;;;;;;11.10;7.90;;;;;;;8.96;59.10;102154.94;105780;1304;21972;-61
2022/11/12 02:32:17;;;;;;;9.30;6.50;;;;;;;8.93;59.22;102158.55;106133;1303;21957;-62
2022/11/12 02:34:44;;;;;;;7.50;5.60;;;;;;;8.89;59.22;102156.71;106025;1304;21970;-68
2022/11/12 02:37:09;;;;;;;9.10;6.20;;;;;;;8.86;59.26;102155.41;106027;1301;21963;-62
2022/11/12 02:39:35;;;;;;;9.40;7.30;;;;;;;8.84;59.36;102161.14;106062;1304;21969;-68
2022/11/12 02:42:03;;;;;;;10.90;7.40;;;;;;;8.82;59.41;102167.23;106157;1304;22014;-68
2022/11/12 02:44:29;;;;;;;9.30;7.30;;;;;;;8.81;59.50;102166.85;105970;1301;21958;-68
2022/11/12 02:46:55;;;;;;;12.50;7.90;;;;;;;8.79;59.47;102164.36;106039;1301;21964;-62
2022/11/12 02:49:21;;;;;;;11.80;7.90;;;;;;;8.75;59.58;102161.31;106056;1304;21975;-68
2022/11/12 02:51:47;;;;;;;10.90;8.50;;;;;;;8.74;59.56;102161.78;105988;1304;21962;-68
2022/11/12 02:54:14;;;;;;;13.30;7.80;;;;;;;8.74;59.73;102164.61;106105;1295;21962;-67
2022/11/12 02:56:40;;;;;;;10.90;8.30;;;;;;;8.77;59.70;102163.08;105997;1303;21973;-62
2022/11/12 02:59:07;;;;;;;10.50;7.50;;;;;;;8.79;59.61;102165.23;106094;1302;21957;-68
2022/11/12 03:01:32;;;;;;;12.80;8.40;;;;;;;8.77;59.74;102166.59;106043;1304;21956;-62
2022/11/12 03:03:59;;;;;;;10.80;7.60;;;;;;;8.77;59.68;102164.85;106002;1299;21976;-62
2022/11/12 03:06:25;;;;;;;10.30;7.20;;;;;;;8.82;59.56;102164.26;106077;1304;21979;-62
2022/11/12 03:08:51;;;;;;;10.90;6.90;;;;;;;8.83;59.56;102165.32;106042;1303;21978;-67
2022/11/12 03:11:17;;;;;;;11.70;7.00;;;;;;;8.83;59.39;102165.67;106108;1299;22049;-61
2022/11/12 03:13:43;;;;;;;10.00;7.10;;;;;;;8.81;59.29;102160.55;106024;1304;22000;-68
2022/11/12 03:16:10;;;;;;;8.10;5.80;;;;;;;8.78;59.17;102158.23;106010;1304;21953;-68
2022/11/12 03:18:36;;;;;;;9.10;6.30;;;;;;;8.76;59.25;102157.98;105971;1304;21928;-68
2022/11/12 03:21:03;;;;;;;9.80;6.30;;;;;;;8.69;59.42;102157.48;106004;1295;21970;-67
2022/11/12 03:23:29;;;;;;;9.70;6.50;;;;;;;8.68;59.34;102156.91;106072;1304;21982;-68
2022/11/12 03:25:55;;;;;;;8.30;6.30;;;;;;;8.65;59.41;102156.50;106057;1304;22089;-62
2022/11/12 03:28:22;;;;;;;8.70;5.80;;;;;;;8.64;59.49;102153.14;105990;1299;21976;-62
2022/11/12 03:30:48;;;;;;;8.50;6.30;;;;;;;8.62;59.51;102156.61;105819;1302;23073;-70
2022/11/12 03:33:14;;;;;;;9.10;6.60;;;;;;;8.59;59.49;102157.42;105977;1304;21956;-64
2022/11/12 03:35:40;;;;;;;9.00;6.70;;;;;;;8.55;59.50;102162.21;105961;1299;21956;-63
2022/11/12 03:38:06;;;;;;;7.90;5.90;;;;;;;8.45;59.92;102164.02;105955;1304;21969;-62
2022/11/12 03:40:32;;;;;;;8.10;5.60;;;;;;;8.42;59.87;102161.85;105964;1286;21941;-69
2022/11/12 03:42:58;;;;;;;7.70;5.90;;;;;;;8.42;59.87;102165.52;105997;1304;21965;-63
2022/11/12 03:45:25;;;;;;;12.10;7.30;;;;;;;8.41;59.85;102164.09;106069;1304;23630;-61
2022/11/12 03:47:53;;;;;;;11.10;7.50;;;;;;;8.43;60.21;102167.30;106107;1304;21961;-68
2022/11/12 03:50:21;;;;;;;10.40;6.90;;;;;;;8.49;60.25;102168.00;106126;1301;21962;-68
2022/11/12 03:52:48;;;;;;;9.60;6.40;;;;;;;8.58;59.74;102170.35;106044;1301;22091;-68
2022/11/12 03:55:16;;;;;;;8.20;6.20;;;;;;;8.63;59.43;102173.61;106155;1304;21960;-63
2022/11/12 03:57:42;;;;;;;7.70;5.90;;;;;;;8.62;59.44;102175.52;106178;1299;21962;-61
2022/11/12 04:00:09;;;;;;;8.60;6.20;;;;;;;8.62;59.43;102174.97;106058;1299;21969;-67
2022/11/12 04:02:35;;;;;;;10.10;6.80;;;;;;;8.61;59.47;102178.10;106052;1298;21984;-62
2022/11/12 04:10:32;;;;;;;8.40;5.70;;;;;;;8.68;59.55;102178.26;105990;1296;21961;-68
2022/11/12 04:15:42;;;;;;;9.20;6.60;;;;;;;8.65;59.61;102175.54;106095;1304;21961;-68
2022/11/12 04:23:39;;;;;;;8.60;6.50;;;;;;;8.61;59.55;102167.27;105763;1306;22044;-68
2022/11/12 04:26:23;;;;;;;10.00;6.90;;;;;;;8.61;59.68;102166.20;106035;1299;21963;-68
2022/11/12 04:31:33;;;;;;;7.50;6.10;;;;;;;8.67;59.71;102165.81;106073;1304;21935;-67
2022/11/12 04:34:27;;;;;;;8.80;6.30;;;;;;;8.67;59.74;102172.99;106120;1304;22802;-68
2022/11/12 04:36:46;;;;;;;6.80;5.40;;;;;;;8.66;59.62;102173.13;106045;1304;21950;-62
2022/11/12 04:39:12;;;;;;;7.70;5.80;;;;;;;8.63;59.59;102179.04;106153;1304;21968;-62
2022/11/12 04:47:06;;;;;;;8.80;5.90;;;;;;;8.64;59.74;102178.34;106026;1304;21981;-68
2022/11/12 04:49:32;;;;;;;10.10;6.70;;;;;;;8.65;59.84;102178.02;106042;1304;21955;-70
2022/11/12 04:52:06;;;;;;;9.30;6.20;;;;;;;8.71;59.95;102179.21;106175;1302;22002;-68
2022/11/12 04:54:32;;;;;;;10.90;7.60;;;;;;;8.77;60.03;102179.90;106079;1299;21970;-60
2022/11/12 04:56:59;;;;;;;11.40;7.80;;;;;;;8.86;60.01;102181.13;106020;1301;21974;-61
2022/11/12 04:59:25;;;;;;;10.30;6.30;;;;;;;8.90;59.97;102181.44;106077;1304;21972;-68
2022/11/12 05:01:51;;;;;;;10.10;6.80;;;;;;;8.94;59.89;102182.92;105800;1299;22386;-66
2022/11/12 05:04:16;;;;;;;9.70;6.90;;;;;;;8.99;60.02;102186.19;106097;1299;22128;-67
2022/11/12 05:06:52;;;;;;;12.10;5.40;;;;;;;9.02;59.77;102188.53;106019;1304;21971;-68
2022/11/12 05:09:25;;;;;;;9.00;5.70;;;;;;;9.03;59.54;102193.11;106136;1304;21967;-67
2022/11/12 05:11:51;;;;;;;20.50;6.00;;;;;;;9.04;59.59;102197.52;106026;1298;21972;-68
2022/11/12 05:14:18;;;;;;;8.90;5.50;;;;;;;9.07;59.54;102199.31;106118;1299;21969;-61
2022/11/12 05:16:44;;;;;;;6.30;4.80;;;;;;;9.09;59.39;102197.09;106005;1306;21967;-62
2022/11/12 05:19:11;;;;;;;41.20;25.20;;;;;;;9.06;59.38;102194.73;106056;1304;21966;-60
2022/11/12 05:24:23;;;;;;;26.90;17.90;;;;;;;9.09;59.30;102194.99;106020;1299;21984;-60
2022/11/12 05:26:49;;;;;;;29.80;18.70;;;;;;;9.12;59.32;102201.19;106060;1299;22003;-66
2022/11/12 05:29:15;;;;;;;29.90;20.90;;;;;;;9.16;59.41;102204.96;106184;1299;21962;-61
2022/11/12 05:31:40;;;;;;;63.00;41.30;;;;;;;9.19;59.36;102205.73;106095;1300;22135;-67
2022/11/12 05:34:09;;;;;;;51.20;33.80;;;;;;;9.22;59.33;102204.58;106074;1304;21974;-61
2022/11/12 05:36:35;;;;;;;36.40;25.00;;;;;;;9.25;59.32;102202.35;106156;1304;21965;-61
2022/11/12 05:39:00;;;;;;;34.20;19.20;;;;;;;9.28;59.35;102207.67;105948;1304;21976;-68
2022/11/12 05:41:27;;;;;;;22.70;16.20;;;;;;;9.31;59.26;102214.23;106051;1299;21970;-68
2022/11/12 05:43:53;;;;;;;11.80;8.80;;;;;;;9.34;59.15;102220.42;106766;1304;23236;-70
2022/11/12 05:46:19;;;;;;;9.10;6.50;;;;;;;9.34;58.85;102222.86;106068;1299;21973;-66
2022/11/12 05:48:44;;;;;;;8.40;5.00;;;;;;;9.31;58.75;102228.23;106096;1304;21958;-70
2022/11/12 05:51:12;;;;;;;7.70;5.40;;;;;;;9.23;58.61;102233.85;106103;1299;21951;-60
2022/11/12 05:53:40;;;;;;;7.10;5.50;;;;;;;9.18;58.60;102236.36;106006;1302;21986;-68
2022/11/12 05:56:06;;;;;;;8.50;4.80;;;;;;;9.17;58.71;102238.26;105987;1294;21991;-70
2022/11/12 05:58:37;;;;;;;8.00;4.70;;;;;;;9.15;58.67;102241.89;105998;1299;21977;-60
2022/11/12 06:01:03;;;;;;;7.30;5.30;;;;;;;9.16;58.75;102240.33;105907;1306;21970;-61
2022/11/12 06:03:30;;;;;;;7.00;4.90;;;;;;;9.20;58.96;102243.60;105953;1304;22756;-70
2022/11/12 06:05:55;;;;;;;7.30;4.70;;;;;;;9.26;59.13;102246.17;105997;1304;21966;-70
2022/11/12 06:08:22;;;;;;;7.90;4.80;;;;;;;9.31;58.98;102250.83;105984;1299;21947;-70
2022/11/12 06:10:49;;;;;;;6.00;4.50;;;;;;;9.35;59.05;102255.14;105987;1304;21968;-59
2022/11/12 06:13:15;;;;;;;5.60;4.00;;;;;;;9.39;59.16;102261.36;106153;1295;21976;-60
2022/11/12 06:15:42;;;;;;;9.50;5.40;;;;;;;9.43;59.45;102268.27;106004;1302;22738;-73
2022/11/12 06:18:09;;;;;;;8.20;4.50;;;;;;;9.52;59.58;102268.81;105816;1295;21964;-71
2022/11/12 06:20:35;;;;;;;5.90;4.70;;;;;;;9.60;59.35;102269.35;105937;1295;22032;-71
2022/11/12 06:23:05;;;;;;;6.90;4.40;;;;;;;9.61;59.20;102270.80;105909;1299;22011;-61
2022/11/12 06:25:32;;;;;;;9.10;5.10;;;;;;;9.62;59.40;102273.27;105840;1300;21965;-71
2022/11/12 06:27:58;;;;;;;6.80;5.40;;;;;;;9.71;59.84;102271.52;106032;1299;22014;-59
2022/11/12 06:30:24;;;;;;;9.10;5.50;;;;;;;9.85;59.88;102271.82;106045;1304;21961;-60
2022/11/12 06:32:51;;;;;;;6.30;4.90;;;;;;;9.93;59.70;102269.69;105716;1304;367855;-69
2022/11/12 06:35:18;;;;;;;6.90;4.90;;;;;;;9.98;59.57;102275.06;105981;1304;21971;-58
2022/11/12 06:37:45;;;;;;;5.20;3.80;;;;;;;10.02;59.67;102276.89;106005;1299;21970;-69
2022/11/12 06:40:11;;;;;;;7.00;4.70;;;;;;;10.06;59.60;102275.75;106005;1304;22924;-70
2022/11/12 06:42:37;;;;;;;7.30;5.30;;;;;;;10.14;59.66;102279.40;106105;1304;22008;-70
2022/11/12 06:45:03;;;;;;;7.20;4.80;;;;;;;10.20;59.71;102276.90;105978;1299;21964;-70
2022/11/12 06:47:29;;;;;;;7.90;4.50;;;;;;;10.24;59.81;102280.48;105933;1304;21960;-60
2022/11/12 06:49:55;;;;;;;12.20;4.80;;;;;;;10.30;59.85;102283.95;105938;1304;21970;-73
2022/11/12 06:52:21;;;;;;;11.00;5.00;;;;;;;10.40;59.96;102287.48;105962;1304;22170;-61
2022/11/12 06:54:48;;;;;;;9.10;5.40;;;;;;;10.53;60.05;102291.96;106050;1299;22962;-69
2022/11/12 06:57:13;;;;;;;7.80;4.60;;;;;;;10.66;60.16;102294.46;105939;1304;21967;-70
2022/11/12 06:59:39;;;;;;;8.90;4.90;;;;;;;10.77;60.28;102297.30;105959;1304;21963;-71
2022/11/12 07:02:05;;;;;;;9.10;4.60;;;;;;;10.91;60.39;102298.95;105943;1304;21967;-71
2022/11/12 07:04:31;;;;;;;10.70;4.50;;;;;;;11.05;60.17;102298.30;106089;1299;22005;-70
2022/11/12 07:06:57;;;;;;;7.60;5.20;;;;;;;11.19;60.26;102296.75;105870;1305;21972;-60
2022/11/12 07:09:23;;;;;;;8.20;4.90;;;;;;;11.31;60.14;102294.66;105998;1304;21961;-70
2022/11/12 07:11:49;;;;;;;8.70;5.60;;;;;;;11.42;60.14;102291.48;105979;1301;21967;-61
2022/11/12 07:14:15;;;;;;;9.10;4.80;;;;;;;11.51;60.09;102290.02;106106;1299;21955;-69
2022/11/12 07:16:41;;;;;;;6.70;4.30;;;;;;;11.55;59.95;102292.73;106057;1302;21968;-63
2022/11/12 07:19:08;;;;;;;7.30;4.60;;;;;;;11.56;59.82;102292.22;106091;1299;21969;-63
2022/11/12 07:21:36;;;;;;;7.00;4.40;;;;;;;11.54;59.81;102290.27;106005;1304;21985;-63
2022/11/12 07:24:02;;;;;;;6.60;5.20;;;;;;;11.54;59.88;102289.73;105996;1301;21959;-63
2022/11/12 07:26:28;;;;;;;6.60;4.60;;;;;;;11.59;60.01;102291.73;105952;1304;21973;-63
2022/11/12 07:28:56;;;;;;;11.30;4.30;;;;;;;11.67;60.21;102290.44;105952;1301;22011;-68
2022/11/12 07:31:22;;;;;;;7.60;4.30;;;;;;;11.76;60.32;102284.92;105982;1304;21960;-63
2022/11/12 07:33:48;;;;;;;7.40;4.00;;;;;;;11.89;60.15;102285.97;105938;1304;21971;-64
2022/11/12 07:36:16;;;;;;;6.40;4.30;;;;;;;12.00;60.30;102284.02;106107;1303;21951;-63
2022/11/12 07:38:43;;;;;;;6.50;4.90;;;;;;;12.10;60.01;102286.27;105426;1299;1002610;-69
2022/11/12 07:41:13;;;;;;;4.60;3.90;;;;;;;12.17;60.06;102286.17;106148;1304;24423;-63
2022/11/12 07:43:41;;;;;;;6.10;3.80;;;;;;;12.24;59.92;102289.59;106183;1303;22005;-64
2022/11/12 07:46:09;;;;;;;5.00;3.50;;;;;;;12.30;60.17;102289.67;106176;1303;21958;-64
2022/11/12 07:48:35;;;;;;;5.30;3.60;;;;;;;12.42;60.23;102294.19;106199;1304;21972;-68
2022/11/12 07:51:06;;;;;;;6.40;4.70;;;;;;;12.53;60.17;102295.36;106165;1304;23680;-69
2022/11/12 07:53:33;;;;;;;5.50;4.40;;;;;;;12.65;60.07;102295.65;106161;1304;21962;-64
2022/11/12 07:56:00;;;;;;;5.60;4.10;;;;;;;12.79;59.97;102292.44;106207;1304;21962;-66
2022/11/12 07:58:26;;;;;;;5.50;4.00;;;;;;;12.89;59.96;102290.59;106296;1296;22028;-65
2022/11/12 08:00:53;;;;;;;6.20;4.10;;;;;;;12.94;59.89;102296.80;106167;1304;23825;-64
2022/11/12 08:03:19;;;;;;;6.80;4.10;;;;;;;12.95;59.71;102298.58;105995;1304;21967;-68
2022/11/12 08:05:46;;;;;;;6.20;4.60;;;;;;;12.99;59.80;102297.90;106011;1301;21950;-64
2022/11/12 08:08:11;;;;;;;5.80;4.10;;;;;;;13.05;60.06;102298.29;106050;1304;21957;-68
2022/11/12 08:10:37;;;;;;;6.10;4.50;;;;;;;13.12;60.12;102297.12;105957;1304;22000;-67
2022/11/12 08:13:03;;;;;;;6.50;4.70;;;;;;;13.21;59.86;102300.35;105918;1301;21984;-66
2022/11/12 08:15:29;;;;;;;8.70;4.30;;;;;;;13.29;59.74;102297.94;106074;1304;21981;-65
2022/11/12 08:17:55;;;;;;;6.00;4.80;;;;;;;13.36;59.87;102295.70;105986;1304;22010;-66
2022/11/12 08:20:23;;;;;;;4.60;3.90;;;;;;;13.42;59.65;102297.90;105962;1304;21958;-67
2022/11/12 08:22:49;;;;;;;6.60;5.60;;;;;;;13.40;59.41;102297.33;105968;1304;21973;-68
2022/11/12 08:25:14;;;;;;;5.80;5.00;;;;;;;13.38;59.60;102296.95;106034;1304;21965;-67
2022/11/12 08:27:41;;;;;;;5.90;4.70;;;;;;;13.43;59.80;102297.02;106060;1304;21976;-68
2022/11/12 08:30:07;;;;;;;6.10;4.80;;;;;;;13.47;59.71;102295.98;106057;1301;21971;-66
2022/11/12 08:32:34;;;;;;;4.70;3.50;;;;;;;13.45;59.57;102299.14;105974;1304;21972;-66
2022/11/12 08:35:00;;;;;;;5.20;4.30;;;;;;;13.40;59.44;102298.92;105949;1304;21977;-67
2022/11/12 08:37:26;;;;;;;6.80;5.00;;;;;;;13.40;59.52;102304.73;106059;1304;21973;-67
2022/11/12 08:39:52;;;;;;;5.70;4.60;;;;;;;13.38;59.53;102308.25;106073;1304;22027;-66
2022/11/12 08:42:18;;;;;;;7.30;4.60;;;;;;;13.35;59.47;102303.46;105965;1305;21990;-67
2022/11/12 08:44:43;;;;;;;5.50;4.40;;;;;;;13.31;59.39;102303.27;105952;1292;21970;-67
2022/11/12 08:47:10;;;;;;;6.70;4.80;;;;;;;13.27;59.26;102306.40;106002;1304;21965;-67
2022/11/12 08:49:39;;;;;;;8.10;5.20;;;;;;;13.24;59.51;102308.85;106108;1304;21980;-67
2022/11/12 08:52:05;;;;;;;12.10;6.90;;;;;;;13.24;59.81;102310.96;106052;1304;21967;-67
2022/11/12 08:54:30;;;;;;;7.00;5.20;;;;;;;13.29;60.13;102313.80;106034;1306;21966;-66
2022/11/12 08:56:56;;;;;;;6.80;5.00;;;;;;;13.30;59.93;102315.95;105988;1302;21983;-67
2022/11/12 08:59:22;;;;;;;7.40;6.00;;;;;;;13.30;59.94;102319.98;105931;1304;21962;-67
2022/11/12 09:01:48;;;;;;;8.60;6.40;;;;;;;13.30;59.98;102320.34;106005;1304;23036;-67
2022/11/12 09:04:13;;;;;;;8.80;6.40;;;;;;;13.25;59.73;102318.37;105971;1298;21964;-67
2022/11/12 09:06:42;;;;;;;10.00;8.00;;;;;;;13.23;59.76;102315.02;106059;1300;21966;-66
2022/11/12 09:09:08;;;;;;;9.90;7.70;;;;;;;13.29;60.06;102316.29;106010;1304;22420;-66
2022/11/12 09:11:34;;;;;;;8.70;7.10;;;;;;;13.39;60.06;102313.02;106042;1304;21979;-66
2022/11/12 09:14:08;;;;;;;8.40;6.30;;;;;;;13.43;59.93;102306.72;106029;1305;21953;-67
2022/11/12 09:16:34;;;;;;;10.00;6.90;;;;;;;13.41;59.86;102310.58;106061;1304;21965;-67
2022/11/12 09:19:00;;;;;;;8.80;6.40;;;;;;;13.41;59.79;102311.98;106001;1304;21970;-66
2022/11/12 09:21:27;;;;;;;13.10;8.40;;;;;;;13.39;59.91;102312.12;105809;1306;21972;-67
2022/11/12 09:23:52;;;;;;;12.20;8.90;;;;;;;13.43;60.29;102307.42;105942;1304;22066;-67
2022/11/12 09:26:19;;;;;;;12.50;9.10;;;;;;;13.54;60.39;102309.07;106029;1304;21963;-66
2022/11/12 09:28:44;;;;;;;11.50;8.40;;;;;;;13.64;60.48;102308.79;105960;1304;21935;-66
2022/11/12 09:31:11;;;;;;;15.10;10.80;;;;;;;13.72;60.29;102310.77;105995;1304;21970;-67
2022/11/12 09:33:36;;;;;;;18.60;10.10;;;;;;;13.80;60.57;102309.75;106011;1305;21966;-67
2022/11/12 09:36:16;;;;;;;17.10;9.80;;;;;;;13.92;60.48;102308.92;105971;1304;21969;-66
2022/11/12 09:38:42;;;;;;;17.50;11.80;;;;;;;14.02;60.50;102307.02;105933;1304;21981;-67
2022/11/12 09:41:29;;;;;;;21.00;12.10;;;;;;;14.14;60.66;102304.60;106039;1306;22020;-67
2022/11/12 09:43:57;;;;;;;14.90;10.70;;;;;;;14.23;60.78;102303.58;105837;1304;21974;-67
2022/11/12 09:46:23;;;;;;;16.80;9.70;;;;;;;14.30;60.65;102300.44;106074;1305;21958;-67
2022/11/12 09:48:57;;;;;;;16.50;10.40;;;;;;;14.36;60.57;102300.61;106019;1305;21956;-67
2022/11/12 09:51:38;;;;;;;16.30;11.00;;;;;;;14.41;60.29;102302.73;105992;1304;22011;-66
2022/11/12 09:54:18;;;;;;;20.70;12.10;;;;;;;14.37;60.10;102305.20;106036;1305;21969;-66
2022/11/12 09:56:44;;;;;;;15.30;10.70;;;;;;;14.37;60.25;102306.62;105992;1304;21972;-67
2022/11/12 09:59:14;;;;;;;16.10;10.90;;;;;;;14.43;60.30;102306.64;105869;1306;21992;-67
2022/11/12 10:01:53;;;;;;;14.70;11.30;;;;;;;14.50;60.27;102305.41;105953;1300;21979;-67
2022/11/12 10:04:28;;;;;;;15.10;11.60;;;;;;;14.58;60.52;102306.31;105792;1300;22769;-67
2022/11/12 10:07:04;;;;;;;18.50;12.60;;;;;;;14.69;60.55;102305.11;105975;1304;21968;-67
2022/11/12 10:09:36;;;;;;;18.80;13.70;;;;;;;14.72;60.21;102302.66;106040;1301;21970;-67
2022/11/12 10:17:59;;;;;;;19.20;13.20;;;;;;;14.60;60.01;102298.00;105986;1304;22019;-67
2022/11/12 10:20:53;;;;;;;15.90;12.40;;;;;;;14.58;59.96;102296.08;105960;1305;21981;-67
2022/11/12 10:23:26;;;;;;;18.00;13.70;;;;;;;14.57;60.02;102297.66;105970;1306;22084;-67
2022/11/12 10:25:52;;;;;;;19.20;14.30;;;;;;;14.59;60.03;102301.01;106037;1295;21974;-67
2022/11/12 10:29:01;;;;;;;18.10;13.60;;;;;;;14.61;60.09;102295.00;105772;1306;23815;-67
2022/11/12 10:31:28;;;;;;;18.00;13.20;;;;;;;14.60;60.07;102292.71;105760;1305;21972;-67
2022/11/12 10:34:12;;;;;;;26.20;19.80;;;;;;;14.58;60.14;102295.54;106053;1304;23034;-67
2022/11/12 10:36:39;;;;;;;27.80;22.10;;;;;;;14.61;60.43;102292.88;106006;1305;21967;-66
2022/11/12 10:39:05;;;;;;;27.00;20.30;;;;;;;14.66;60.51;102295.38;106072;1304;21979;-66
2022/11/12 10:41:32;;;;;;;22.00;16.20;;;;;;;14.73;60.49;102293.83;106021;1304;21971;-66
2022/11/12 10:44:04;;;;;;;21.90;15.60;;;;;;;14.77;60.30;102291.89;106089;1301;22008;-67
2022/11/12 10:46:32;;;;;;;18.70;14.40;;;;;;;14.78;60.25;102287.30;106066;1305;21971;-67
2022/11/12 10:49:06;;;;;;;20.50;15.30;;;;;;;14.78;60.13;102283.04;105976;1300;21966;-67
2022/11/12 10:51:36;;;;;;;21.20;15.50;;;;;;;14.76;60.24;102279.70;105955;1300;21965;-66
2022/11/12 10:54:29;;;;;;;19.80;15.20;;;;;;;14.76;60.21;102278.81;105993;1304;21968;-67
2022/11/12 10:56:55;;;;;;;25.00;18.00;;;;;;;14.77;60.20;102279.33;105965;1304;21964;-67
2022/11/12 10:59:24;;;;;;;24.00;18.60;;;;;;;14.79;60.25;102276.68;106058;1304;22011;-67
2022/11/12 11:01:55;;;;;;;23.40;17.00;;;;;;;14.84;60.39;102278.10;105950;1304;21962;-67
2022/11/12 11:04:31;;;;;;;24.40;16.80;;;;;;;14.86;60.21;102274.55;105922;1301;21966;-65
2022/11/12 11:07:03;;;;;;;24.00;16.50;;;;;;;14.85;60.12;102273.49;105997;1304;21963;-65
2022/11/12 11:09:29;;;;;;;18.40;14.70;;;;;;;14.88;60.34;102274.02;106055;1304;22051;-66
2022/11/12 11:11:56;;;;;;;24.80;16.90;;;;;;;14.96;60.48;102270.50;105971;1302;21974;-67
2022/11/12 11:14:22;;;;;;;21.10;17.10;;;;;;;15.04;60.45;102265.18;105936;1304;22005;-68
2022/11/12 11:16:52;;;;;;;22.90;17.10;;;;;;;15.10;60.37;102265.55;106007;1304;21986;-68
2022/11/12 11:19:20;;;;;;;27.50;18.80;;;;;;;15.16;60.18;102266.77;105970;1305;21975;-66
2022/11/12 11:21:49;;;;;;;24.00;18.20;;;;;;;15.18;60.20;102266.95;105931;1304;21974;-66
2022/11/12 11:24:24;;;;;;;24.00;18.40;;;;;;;15.17;59.96;102266.42;105970;1306;21978;-66
2022/11/12 11:27:02;;;;;;;20.80;15.70;;;;;;;15.13;59.92;102263.23;105949;1304;21966;-67
2022/11/12 11:29:48;;;;;;;21.30;15.60;;;;;;;15.13;59.97;102263.77;105933;1304;21971;-66
2022/11/12 11:32:52;;;;;;;24.40;18.60;;;;;;;15.17;60.13;102264.66;105989;1304;21974;-67
2022/11/12 11:35:39;;;;;;;22.30;17.60;;;;;;;15.23;60.12;102258.27;105908;1305;23091;-67
2022/11/12 11:38:31;;;;;;;22.50;17.40;;;;;;;15.28;60.07;102253.83;105938;1304;21964;-65
2022/11/12 11:41:10;;;;;;;20.90;16.30;;;;;;;15.39;60.21;102255.05;105959;1304;21968;-66
2022/11/12 11:43:47;;;;;;;21.30;17.10;;;;;;;15.55;60.49;102247.94;105921;1304;21961;-65
2022/11/12 11:46:25;;;;;;;21.60;17.20;;;;;;;15.76;60.42;102244.67;106057;1305;22011;-66
2022/11/12 11:48:59;;;;;;;23.80;17.40;;;;;;;15.95;60.43;102245.33;105945;1304;21967;-65
2022/11/12 11:51:33;;;;;;;22.20;17.20;;;;;;;16.13;60.21;102245.05;105949;1300;21966;-67
2022/11/12 11:54:18;;;;;;;19.70;16.10;;;;;;;16.23;59.67;102242.35;105794;1306;21966;-67
2022/11/12 11:56:43;;;;;;;23.20;17.20;;;;;;;16.32;59.76;102244.60;105942;1304;21971;-67